createdAt,value
2018-12-20T00:00:35.369Z,8.09
2018-12-20T00:01:35.325Z,8.06
2018-12-20T00:02:35.481Z,8.01
2018-12-20T00:03:35.448Z,8.00
2018-12-20T00:04:35.505Z,8.03
2018-12-20T00:05:35.632Z,8.08
2018-12-20T00:06:35.667Z,8.03
2018-12-20T00:07:35.689Z,8.05
2018-12-20T00:08:35.749Z,8.05
2018-12-20T00:09:35.816Z,8.03
2018-12-20T00:10:35.877Z,7.98
2018-12-20T00:11:35.941Z,7.98
2018-12-20T00:12:36.081Z,8.00
2018-12-20T00:13:36.078Z,7.98
2018-12-20T00:14:36.189Z,8.03
2018-12-20T00:15:36.205Z,8.12
2018-12-20T00:16:36.371Z,8.08
2018-12-20T00:17:36.488Z,8.10
2018-12-20T00:18:36.358Z,8.13
2018-12-20T00:19:36.499Z,8.12
2018-12-20T00:20:36.561Z,8.05
2018-12-20T00:21:36.614Z,8.15
2018-12-20T00:22:36.659Z,7.98
2018-12-20T00:23:36.662Z,8.10
2018-12-20T00:24:36.750Z,8.16
2018-12-20T00:25:36.792Z,8.16
2018-12-20T00:26:36.849Z,8.09
2018-12-20T00:27:36.913Z,8.06
2018-12-20T00:28:37.054Z,8.09
2018-12-20T00:29:37.026Z,8.06
2018-12-20T00:30:37.152Z,8.09
2018-12-20T00:31:37.228Z,8.16
2018-12-20T00:32:37.234Z,8.05
2018-12-20T00:33:37.275Z,8.10
2018-12-20T00:34:37.490Z,8.08
2018-12-20T00:35:37.419Z,8.08
2018-12-20T00:36:37.556Z,8.08
2018-12-20T00:37:37.586Z,8.05
2018-12-20T00:38:37.663Z,7.97
2018-12-20T00:39:37.639Z,8.01
2018-12-20T00:40:37.824Z,8.00
2018-12-20T00:41:37.843Z,7.95
2018-12-20T00:42:37.956Z,8.00
2018-12-20T00:43:37.893Z,8.05
2018-12-20T00:44:37.939Z,7.94
2018-12-20T00:45:37.999Z,8.08
2018-12-20T00:46:38.067Z,8.03
2018-12-20T00:47:38.191Z,8.09
2018-12-20T00:48:38.250Z,8.12
2018-12-20T00:49:38.277Z,8.15
2018-12-20T00:50:38.330Z,8.09
2018-12-20T00:51:38.371Z,8.13
2018-12-20T00:52:38.504Z,8.19
2018-12-20T00:53:38.525Z,8.18
2018-12-20T00:54:38.547Z,8.15
2018-12-20T00:55:38.743Z,8.26
2018-12-20T00:56:38.698Z,8.24
2018-12-20T00:57:38.745Z,8.28
2018-12-20T00:58:38.811Z,8.28
2018-12-20T00:59:39.041Z,8.26
2018-12-20T01:00:38.920Z,8.19
2018-12-20T01:01:38.976Z,8.23
2018-12-20T01:02:39.119Z,8.30
2018-12-20T01:03:39.104Z,8.09
2018-12-20T01:04:39.180Z,8.20
2018-12-20T01:05:39.358Z,8.26
2018-12-20T01:06:39.280Z,8.20
2018-12-20T01:07:39.458Z,8.27
2018-12-20T01:08:39.411Z,8.27
2018-12-20T01:09:39.582Z,8.30
2018-12-20T01:10:39.526Z,8.31
2018-12-20T01:11:39.651Z,8.33
2018-12-20T01:12:39.658Z,8.26
2018-12-20T01:13:39.855Z,8.26
2018-12-20T01:14:45.277Z,8.33
2018-12-20T01:15:39.974Z,8.28
2018-12-20T01:16:39.888Z,8.33
2018-12-20T01:17:40.218Z,8.31
2018-12-20T01:18:40.021Z,8.27
2018-12-20T01:19:40.079Z,8.33
2018-12-20T01:20:40.171Z,8.28
2018-12-20T01:21:40.323Z,8.33
2018-12-20T01:22:40.274Z,8.27
2018-12-20T01:23:40.347Z,8.34
2018-12-20T01:24:40.414Z,8.34
2018-12-20T01:25:40.501Z,8.34
2018-12-20T01:26:40.526Z,8.34
2018-12-20T01:27:40.609Z,8.36
2018-12-20T01:28:40.634Z,8.31
2018-12-20T01:29:40.754Z,8.28
2018-12-20T01:30:40.745Z,8.31
2018-12-20T01:31:40.805Z,8.31
2018-12-20T01:32:41.032Z,8.30
2018-12-20T01:33:41.060Z,8.28
2018-12-20T01:34:40.989Z,8.33
2018-12-20T01:35:41.275Z,8.31
2018-12-20T01:36:41.366Z,8.30
2018-12-20T01:37:41.356Z,8.23
2018-12-20T01:38:41.258Z,8.24
2018-12-20T01:39:41.395Z,8.26
2018-12-20T01:40:41.354Z,8.31
2018-12-20T01:41:41.517Z,8.28
2018-12-20T01:42:41.486Z,8.37
2018-12-20T01:43:41.756Z,8.33
2018-12-20T01:44:41.834Z,8.30
2018-12-20T01:45:41.799Z,8.34
2018-12-20T01:46:41.858Z,8.38
2018-12-20T01:47:41.790Z,8.34
2018-12-20T01:48:41.854Z,8.33
2018-12-20T01:49:41.925Z,8.34
2018-12-20T01:50:41.992Z,8.34
2018-12-20T01:51:42.026Z,8.34
2018-12-20T01:52:42.300Z,8.38
2018-12-20T01:53:42.167Z,8.34
2018-12-20T01:54:42.432Z,8.37
2018-12-20T01:55:42.274Z,8.45
2018-12-20T01:56:42.335Z,8.41
2018-12-20T01:57:42.423Z,8.46
2018-12-20T01:58:42.607Z,8.38
2018-12-20T01:59:42.693Z,8.36
2018-12-20T02:00:42.579Z,8.44
2018-12-20T02:01:42.638Z,8.41
2018-12-20T02:02:42.822Z,8.41
2018-12-20T02:03:42.880Z,8.42
2018-12-20T02:04:42.822Z,8.44
2018-12-20T02:05:43.080Z,8.45
2018-12-20T02:06:43.220Z,8.38
2018-12-20T02:07:43.134Z,8.42
2018-12-20T02:08:43.325Z,8.44
2018-12-20T02:09:43.170Z,8.38
2018-12-20T02:10:43.187Z,8.44
2018-12-20T02:11:43.251Z,8.52
2018-12-20T02:12:43.448Z,8.49
2018-12-20T02:13:43.463Z,8.49
2018-12-20T02:14:43.432Z,8.49
2018-12-20T02:15:43.630Z,8.52
2018-12-20T02:16:43.569Z,8.56
2018-12-20T02:17:43.623Z,8.53
2018-12-20T02:18:43.768Z,8.53
2018-12-20T02:19:43.735Z,8.51
2018-12-20T02:20:43.859Z,8.56
2018-12-20T02:21:43.948Z,8.56
2018-12-20T02:22:43.927Z,8.58
2018-12-20T02:23:44.008Z,8.66
2018-12-20T02:24:44.050Z,8.64
2018-12-20T02:25:44.191Z,8.64
2018-12-20T02:26:44.188Z,8.69
2018-12-20T02:27:44.555Z,8.73
2018-12-20T02:28:44.328Z,8.78
2018-12-20T02:29:44.477Z,8.61
2018-12-20T02:30:44.407Z,8.76
2018-12-20T02:31:44.561Z,8.74
2018-12-20T02:32:44.773Z,8.71
2018-12-20T02:33:44.655Z,8.70
2018-12-20T02:34:44.692Z,8.71
2018-12-20T02:35:45.524Z,8.70
2018-12-20T02:36:44.817Z,8.78
2018-12-20T02:37:44.843Z,8.73
2018-12-20T02:38:44.909Z,8.67
2018-12-20T02:39:45.122Z,8.70
2018-12-20T02:40:45.149Z,8.70
2018-12-20T02:41:45.081Z,8.73
2018-12-20T02:42:45.140Z,8.79
2018-12-20T02:43:45.417Z,8.76
2018-12-20T02:44:45.273Z,8.79
2018-12-20T02:45:45.334Z,8.74
2018-12-20T02:46:45.415Z,8.71
2018-12-20T02:47:45.573Z,8.79
2018-12-20T02:48:45.597Z,8.73
2018-12-20T02:49:45.896Z,8.78
2018-12-20T02:50:45.832Z,8.78
2018-12-20T02:51:45.691Z,8.76
2018-12-20T02:52:46.004Z,8.70
2018-12-20T02:53:45.817Z,8.76
2018-12-20T02:54:45.904Z,8.78
2018-12-20T02:55:46.032Z,8.79
2018-12-20T02:56:46.338Z,8.81
2018-12-20T02:57:46.208Z,8.78
2018-12-20T02:58:46.358Z,8.78
2018-12-20T02:59:46.322Z,8.73
2018-12-20T03:00:46.268Z,8.73
2018-12-20T03:01:46.302Z,8.71
2018-12-20T03:02:46.370Z,8.78
2018-12-20T03:03:46.755Z,8.74
2018-12-20T03:04:46.661Z,8.74
2018-12-20T03:05:46.670Z,8.76
2018-12-20T03:06:46.648Z,8.73
2018-12-20T03:07:46.827Z,8.73
2018-12-20T03:08:46.742Z,8.78
2018-12-20T03:09:46.945Z,8.74
2018-12-20T03:10:46.976Z,8.79
2018-12-20T03:11:46.958Z,8.74
2018-12-20T03:12:46.970Z,8.76
2018-12-20T03:13:47.229Z,8.82
2018-12-20T03:14:47.157Z,8.79
2018-12-20T03:15:47.155Z,8.71
2018-12-20T03:16:47.233Z,8.73
2018-12-20T03:17:47.329Z,8.76
2018-12-20T03:18:47.628Z,8.81
2018-12-20T03:19:47.636Z,8.71
2018-12-20T03:20:47.556Z,8.66
2018-12-20T03:21:47.533Z,8.73
2018-12-20T03:22:47.789Z,8.70
2018-12-20T03:23:47.652Z,8.60
2018-12-20T03:24:47.807Z,8.67
2018-12-20T03:25:47.794Z,8.74
2018-12-20T03:26:47.908Z,8.64
2018-12-20T03:27:48.010Z,8.64
2018-12-20T03:28:48.256Z,8.60
2018-12-20T03:29:48.092Z,8.69
2018-12-20T03:30:48.302Z,8.66
2018-12-20T03:31:48.146Z,8.64
2018-12-20T03:32:48.203Z,8.69
2018-12-20T03:33:48.403Z,8.70
2018-12-20T03:34:48.559Z,8.67
2018-12-20T03:35:48.380Z,8.60
2018-12-20T03:36:48.439Z,8.63
2018-12-20T03:37:48.870Z,8.67
2018-12-20T03:38:48.788Z,8.66
2018-12-20T03:39:48.779Z,8.63
2018-12-20T03:40:48.706Z,8.61
2018-12-20T03:41:48.788Z,8.71
2018-12-20T03:42:48.980Z,8.61
2018-12-20T03:43:49.059Z,8.66
2018-12-20T03:44:48.997Z,8.76
2018-12-20T03:45:49.024Z,8.70
2018-12-20T03:46:49.048Z,8.71
2018-12-20T03:47:49.266Z,8.67
2018-12-20T03:48:49.306Z,8.69
2018-12-20T03:49:49.676Z,8.69
2018-12-20T03:50:49.311Z,8.64
2018-12-20T03:51:49.425Z,8.73
2018-12-20T03:52:49.437Z,8.70
2018-12-20T03:53:49.670Z,8.67
2018-12-20T03:54:49.714Z,8.70
2018-12-20T03:55:49.775Z,8.76
2018-12-20T03:56:49.703Z,8.70
2018-12-20T03:57:49.780Z,8.74
2018-12-20T03:58:49.826Z,8.71
2018-12-20T03:59:49.889Z,8.74
2018-12-20T04:00:49.925Z,8.76
2018-12-20T04:01:50.074Z,8.87
2018-12-20T04:02:50.162Z,8.84
2018-12-20T04:03:50.281Z,8.76
2018-12-20T04:04:50.148Z,8.91
2018-12-20T04:05:50.318Z,8.84
2018-12-20T04:06:50.360Z,8.82
2018-12-20T04:07:50.507Z,8.73
2018-12-20T04:08:50.464Z,8.91
2018-12-20T04:09:50.453Z,8.91
2018-12-20T04:10:50.620Z,8.85
2018-12-20T04:11:50.585Z,8.89
2018-12-20T04:12:50.971Z,8.81
2018-12-20T04:13:50.697Z,8.87
2018-12-20T04:14:50.806Z,8.89
2018-12-20T04:15:50.838Z,8.84
2018-12-20T04:16:51.139Z,8.85
2018-12-20T04:17:50.944Z,8.88
2018-12-20T04:18:51.010Z,8.88
2018-12-20T04:19:51.066Z,8.87
2018-12-20T04:20:51.277Z,8.87
2018-12-20T04:21:51.300Z,8.89
2018-12-20T04:22:51.456Z,8.89
2018-12-20T04:23:51.355Z,8.87
2018-12-20T04:24:51.404Z,8.94
2018-12-20T04:25:51.438Z,8.88
2018-12-20T04:26:51.498Z,8.94
2018-12-20T04:27:51.558Z,8.91
2018-12-20T04:28:51.614Z,8.85
2018-12-20T04:29:51.960Z,8.87
2018-12-20T04:30:51.743Z,8.89
2018-12-20T04:31:51.858Z,8.97
2018-12-20T04:32:51.865Z,8.89
2018-12-20T04:33:52.057Z,8.84
2018-12-20T04:34:51.987Z,8.85
2018-12-20T04:35:52.334Z,8.88
2018-12-20T04:36:52.130Z,8.87
2018-12-20T04:37:52.360Z,8.82
2018-12-20T04:38:52.438Z,8.88
2018-12-20T04:39:52.295Z,8.84
2018-12-20T04:40:52.459Z,8.89
2018-12-20T04:41:52.570Z,8.91
2018-12-20T04:42:52.697Z,8.91
2018-12-20T04:43:52.539Z,8.92
2018-12-20T04:44:52.691Z,8.89
2018-12-20T04:45:52.658Z,8.91
2018-12-20T04:46:52.723Z,8.94
2018-12-20T04:47:52.969Z,8.88
2018-12-20T04:48:53.109Z,8.89
2018-12-20T04:49:53.075Z,8.91
2018-12-20T04:50:53.042Z,8.85
2018-12-20T04:51:53.284Z,8.81
2018-12-20T04:52:53.114Z,8.73
2018-12-20T04:53:53.209Z,8.76
2018-12-20T04:54:53.218Z,8.79
2018-12-20T04:55:53.472Z,8.73
2018-12-20T04:56:53.363Z,8.71
2018-12-20T04:57:53.387Z,8.63
2018-12-20T04:58:53.751Z,8.69
2018-12-20T04:59:53.547Z,8.61
2018-12-20T05:00:53.575Z,8.67
2018-12-20T05:01:53.801Z,8.66
2018-12-20T05:02:53.892Z,8.63
2018-12-20T05:03:53.859Z,8.61
2018-12-20T05:04:53.901Z,8.66
2018-12-20T05:05:53.924Z,8.55
2018-12-20T05:06:53.946Z,8.60
2018-12-20T05:07:54.214Z,8.51
2018-12-20T05:08:54.099Z,8.51
2018-12-20T05:09:54.175Z,8.56
2018-12-20T05:10:54.430Z,8.55
2018-12-20T05:11:54.249Z,8.51
2018-12-20T05:12:54.301Z,8.49
2018-12-20T05:13:54.423Z,8.49
2018-12-20T05:14:54.423Z,8.45
2018-12-20T05:15:56.507Z,8.42
2018-12-20T05:16:54.557Z,8.48
2018-12-20T05:17:54.762Z,8.48
2018-12-20T05:18:54.674Z,8.42
2018-12-20T05:19:54.973Z,8.42
2018-12-20T05:20:55.116Z,8.46
2018-12-20T05:21:54.960Z,8.42
2018-12-20T05:22:54.912Z,8.46
2018-12-20T05:23:55.010Z,8.41
2018-12-20T05:24:55.170Z,8.36
2018-12-20T05:25:55.369Z,8.38
2018-12-20T05:26:55.156Z,8.37
2018-12-20T05:27:55.229Z,8.34
2018-12-20T05:28:55.549Z,8.34
2018-12-20T05:29:55.683Z,8.44
2018-12-20T05:30:55.486Z,8.36
2018-12-20T05:31:55.510Z,8.30
2018-12-20T05:32:55.521Z,8.30
2018-12-20T05:33:55.778Z,8.28
2018-12-20T05:34:55.809Z,8.28
2018-12-20T05:35:55.716Z,8.24
2018-12-20T05:36:55.773Z,8.24
2018-12-20T05:37:56.068Z,8.26
2018-12-20T05:38:55.884Z,8.23
2018-12-20T05:39:56.006Z,8.24
2018-12-20T05:40:56.169Z,8.26
2018-12-20T05:41:56.336Z,8.23
2018-12-20T05:42:56.269Z,8.23
2018-12-20T05:43:56.288Z,8.19
2018-12-20T05:44:56.371Z,8.15
2018-12-20T05:46:04.253Z,8.10
2018-12-20T05:46:57.024Z,8.15
2018-12-20T05:47:56.678Z,8.15
2018-12-20T05:48:56.651Z,8.08
2018-12-20T05:49:56.687Z,8.09
2018-12-20T05:50:56.757Z,8.10
2018-12-20T05:51:56.689Z,8.06
2018-12-20T05:52:56.739Z,7.94
2018-12-20T05:53:57.004Z,8.03
2018-12-20T05:54:57.061Z,8.01
2018-12-20T05:55:57.147Z,8.06
2018-12-20T05:56:57.208Z,7.97
2018-12-20T05:57:57.070Z,8.01
2018-12-20T05:58:57.222Z,7.98
2018-12-20T05:59:57.165Z,7.93
2018-12-20T06:00:57.363Z,7.94
2018-12-20T06:01:57.294Z,7.95
2018-12-20T06:02:57.480Z,7.93
2018-12-20T06:03:57.616Z,7.87
2018-12-20T06:04:57.595Z,7.93
2018-12-20T06:05:57.709Z,7.87
2018-12-20T06:06:57.628Z,7.91
2018-12-20T06:07:57.772Z,7.83
2018-12-20T06:08:57.714Z,7.83
2018-12-20T06:09:57.773Z,7.97
2018-12-20T06:10:57.896Z,7.91
2018-12-20T06:11:58.108Z,7.93
2018-12-20T06:12:58.232Z,7.87
2018-12-20T06:13:58.220Z,7.88
2018-12-20T06:14:58.103Z,7.85
2018-12-20T06:15:58.385Z,7.82
2018-12-20T06:16:58.202Z,7.85
2018-12-20T06:17:58.262Z,7.79
2018-12-20T06:18:58.376Z,7.82
2018-12-20T06:19:58.442Z,7.77
2018-12-20T06:20:58.563Z,7.77
2018-12-20T06:21:58.514Z,7.75
2018-12-20T06:22:58.567Z,7.67
2018-12-20T06:23:58.631Z,7.72
2018-12-20T06:24:58.687Z,7.61
2018-12-20T06:25:58.759Z,7.57
2018-12-20T06:26:58.819Z,7.63
2018-12-20T06:27:58.878Z,7.56
2018-12-20T06:28:58.935Z,7.48
2018-12-20T06:29:58.998Z,7.42
2018-12-20T06:30:59.065Z,7.53
2018-12-20T06:31:59.123Z,7.48
2018-12-20T06:32:59.175Z,7.45
2018-12-20T06:33:59.240Z,7.47
2018-12-20T06:34:59.300Z,7.47
2018-12-20T06:35:59.375Z,7.50
2018-12-20T06:36:59.428Z,7.50
2018-12-20T06:37:59.480Z,7.47
2018-12-20T06:38:59.544Z,7.58
2018-12-20T06:39:59.604Z,7.58
2018-12-20T06:40:59.673Z,7.58
2018-12-20T06:41:59.732Z,7.60
2018-12-20T06:42:59.787Z,7.58
2018-12-20T06:44:07.008Z,7.57
2018-12-20T06:44:59.908Z,7.57
2018-12-20T06:45:59.976Z,7.63
2018-12-20T06:47:00.041Z,7.63
2018-12-20T06:48:00.088Z,7.69
2018-12-20T06:49:00.148Z,7.69
2018-12-20T06:50:00.213Z,7.70
2018-12-20T06:51:00.372Z,7.60
2018-12-20T06:52:00.336Z,7.73
2018-12-20T06:53:00.393Z,7.56
2018-12-20T06:54:00.453Z,7.48
2018-12-20T06:55:00.517Z,7.45
2018-12-20T06:56:00.585Z,7.43
2018-12-20T06:57:00.645Z,7.50
2018-12-20T06:58:00.697Z,7.48
2018-12-20T06:59:00.761Z,7.39
2018-12-20T07:00:00.821Z,7.42
2018-12-20T07:01:00.891Z,7.47
2018-12-20T07:02:00.949Z,7.48
2018-12-20T07:03:01.002Z,7.47
2018-12-20T07:04:01.062Z,7.33
2018-12-20T07:05:01.125Z,7.36
2018-12-20T07:06:01.246Z,7.35
2018-12-20T07:07:01.249Z,7.35
2018-12-20T07:08:01.306Z,7.35
2018-12-20T07:09:01.366Z,7.48
2018-12-20T07:10:01.430Z,7.47
2018-12-20T07:11:01.498Z,7.50
2018-12-20T07:12:01.558Z,7.53
2018-12-20T07:13:01.610Z,7.51
2018-12-20T07:14:01.670Z,7.56
2018-12-20T07:15:01.734Z,7.58
2018-12-20T07:16:01.803Z,7.69
2018-12-20T07:17:01.863Z,7.61
2018-12-20T07:18:01.914Z,7.66
2018-12-20T07:19:01.976Z,7.63
2018-12-20T07:20:02.034Z,7.60
2018-12-20T07:21:02.127Z,7.72
2018-12-20T07:22:02.158Z,7.76
2018-12-20T07:23:02.255Z,7.67
2018-12-20T07:24:02.278Z,7.72
2018-12-20T07:25:02.345Z,7.73
2018-12-20T07:26:02.406Z,7.73
2018-12-20T07:27:02.471Z,7.67
2018-12-20T07:28:02.523Z,7.76
2018-12-20T07:29:02.583Z,7.75
2018-12-20T07:30:02.645Z,7.72
2018-12-20T07:31:02.711Z,7.73
2018-12-20T07:32:02.775Z,7.79
2018-12-20T07:33:02.827Z,7.73
2018-12-20T07:34:02.887Z,7.76
2018-12-20T07:35:02.950Z,7.73
2018-12-20T07:36:03.019Z,7.77
2018-12-20T07:37:03.076Z,7.87
2018-12-20T07:38:03.131Z,7.77
2018-12-20T07:39:03.191Z,7.76
2018-12-20T07:40:03.253Z,7.77
2018-12-20T07:41:03.320Z,7.85
2018-12-20T07:42:03.381Z,7.82
2018-12-20T07:43:03.435Z,7.85
2018-12-20T07:44:03.496Z,7.79
2018-12-20T07:45:03.555Z,7.79
2018-12-20T07:46:03.624Z,7.77
2018-12-20T07:47:03.683Z,7.77
2018-12-20T07:48:03.740Z,7.79
2018-12-20T07:49:03.800Z,7.83
2018-12-20T07:50:03.860Z,7.82
2018-12-20T07:51:03.929Z,7.80
2018-12-20T07:52:03.992Z,7.87
2018-12-20T07:53:04.040Z,7.88
2018-12-20T07:54:04.104Z,7.90
2018-12-20T07:55:04.164Z,7.91
2018-12-20T07:56:04.468Z,7.87
2018-12-20T07:57:04.284Z,7.93
2018-12-20T07:58:04.344Z,7.94
2018-12-20T07:59:04.408Z,7.98
2018-12-20T08:00:04.468Z,8.00
2018-12-20T08:01:04.549Z,7.97
2018-12-20T08:02:04.596Z,8.00
2018-12-20T08:03:04.648Z,8.00
2018-12-20T08:04:04.712Z,8.00
2018-12-20T08:05:04.801Z,7.97
2018-12-20T08:06:04.840Z,8.00
2018-12-20T08:07:04.905Z,8.00
2018-12-20T08:08:04.953Z,7.98
2018-12-20T08:09:05.013Z,7.97
2018-12-20T08:10:05.076Z,8.06
2018-12-20T08:11:05.248Z,7.93
2018-12-20T08:12:05.204Z,7.95
2018-12-20T08:13:05.257Z,8.08
2018-12-20T08:14:05.317Z,8.03
2018-12-20T08:15:05.385Z,8.01
2018-12-20T08:16:05.453Z,8.06
2018-12-20T08:17:05.509Z,8.05
2018-12-20T08:18:05.564Z,8.15
2018-12-20T08:19:05.621Z,8.12
2018-12-20T08:20:05.685Z,8.10
2018-12-20T08:21:05.753Z,8.08
2018-12-20T08:22:05.829Z,8.08
2018-12-20T08:23:05.867Z,8.09
2018-12-20T08:24:05.931Z,8.10
2018-12-20T08:25:05.993Z,8.12
2018-12-20T08:26:06.058Z,8.12
2018-12-20T08:27:06.118Z,8.18
2018-12-20T08:28:06.170Z,8.16
2018-12-20T08:29:06.230Z,8.09
2018-12-20T08:30:06.297Z,8.27
2018-12-20T08:31:06.362Z,8.20
2018-12-20T08:32:06.422Z,8.24
2018-12-20T08:33:06.474Z,8.24
2018-12-20T08:34:06.640Z,8.27
2018-12-20T08:35:06.598Z,8.26
2018-12-20T08:36:06.666Z,8.28
2018-12-20T08:37:06.726Z,8.33
2018-12-20T08:38:06.782Z,8.30
2018-12-20T08:39:06.842Z,8.34
2018-12-20T08:40:06.903Z,8.33
2018-12-20T08:41:09.033Z,8.33
2018-12-20T08:42:07.031Z,8.34
2018-12-20T08:43:07.086Z,8.41
2018-12-20T08:44:07.147Z,8.36
2018-12-20T08:45:07.207Z,8.38
2018-12-20T08:46:07.475Z,8.37
2018-12-20T08:47:07.331Z,8.41
2018-12-20T08:48:07.395Z,8.48
2018-12-20T08:49:07.451Z,8.42
2018-12-20T08:50:07.511Z,8.41
2018-12-20T08:51:07.579Z,8.44
2018-12-20T08:52:07.643Z,8.44
2018-12-20T08:53:07.695Z,8.42
2018-12-20T08:54:07.755Z,8.44
2018-12-20T08:55:07.815Z,8.42
2018-12-20T08:56:07.883Z,8.51
2018-12-20T08:57:07.952Z,8.42
2018-12-20T08:58:08.001Z,8.46
2018-12-20T08:59:08.059Z,8.46
2018-12-20T09:00:08.123Z,8.55
2018-12-20T09:01:08.288Z,8.51
2018-12-20T09:02:08.244Z,8.55
2018-12-20T09:03:08.303Z,8.63
2018-12-20T09:04:08.363Z,8.52
2018-12-20T09:05:08.424Z,8.66
2018-12-20T09:06:08.495Z,8.67
2018-12-20T09:07:08.556Z,8.64
2018-12-20T09:08:08.608Z,8.64
2018-12-20T09:09:08.668Z,8.66
2018-12-20T09:10:08.733Z,8.67
2018-12-20T09:11:08.804Z,8.61
2018-12-20T09:12:08.860Z,8.66
2018-12-20T09:13:09.679Z,8.71
2018-12-20T09:14:08.976Z,8.63
2018-12-20T09:15:09.036Z,8.61
2018-12-20T09:16:09.212Z,8.66
2018-12-20T09:17:09.156Z,8.53
2018-12-20T09:18:09.233Z,8.66
2018-12-20T09:19:09.280Z,8.61
2018-12-20T09:20:09.341Z,8.60
2018-12-20T09:21:09.408Z,8.63
2018-12-20T09:22:09.469Z,8.61
2018-12-20T09:23:09.526Z,8.58
2018-12-20T09:24:09.584Z,8.58
2018-12-20T09:25:09.644Z,8.53
2018-12-20T09:26:09.713Z,8.48
2018-12-20T09:27:09.776Z,8.52
2018-12-20T09:28:09.834Z,8.49
2018-12-20T09:29:09.889Z,8.55
2018-12-20T09:30:09.949Z,8.55
2018-12-20T09:31:10.021Z,8.51
2018-12-20T09:32:10.081Z,8.51
2018-12-20T09:33:10.134Z,8.46
2018-12-20T09:34:10.193Z,8.44
2018-12-20T09:35:10.259Z,8.49
2018-12-20T09:36:10.577Z,8.51
2018-12-20T09:37:10.387Z,8.48
2018-12-20T09:38:10.437Z,8.51
2018-12-20T09:39:10.505Z,8.52
2018-12-20T09:40:10.561Z,8.56
2018-12-20T09:41:10.630Z,8.46
2018-12-20T09:42:10.691Z,8.49
2018-12-20T09:43:10.746Z,8.56
2018-12-20T09:44:10.878Z,8.55
2018-12-20T09:45:10.866Z,8.52
2018-12-20T09:46:10.938Z,8.52
2018-12-20T09:47:11.848Z,8.66
2018-12-20T09:48:11.050Z,8.61
2018-12-20T09:49:11.112Z,8.70
2018-12-20T09:50:11.174Z,8.67
2018-12-20T09:51:11.282Z,8.63
2018-12-20T09:52:11.294Z,8.67
2018-12-20T09:53:11.354Z,8.64
2018-12-20T09:54:11.422Z,8.60
2018-12-20T09:55:11.487Z,8.67
2018-12-20T09:56:12.002Z,8.73
2018-12-20T09:57:11.602Z,8.64
2018-12-20T09:58:11.665Z,8.64
2018-12-20T09:59:11.723Z,8.66
2018-12-20T10:00:11.787Z,8.64
2018-12-20T10:01:11.847Z,8.70
2018-12-20T10:02:12.152Z,8.64
2018-12-20T10:03:11.973Z,8.64
2018-12-20T10:04:12.031Z,8.64
2018-12-20T10:05:12.091Z,8.66
2018-12-20T10:06:12.152Z,8.63
2018-12-20T10:07:12.225Z,8.63
2018-12-20T10:08:12.283Z,8.67
2018-12-20T10:09:12.363Z,8.66
2018-12-20T10:10:12.396Z,8.61
2018-12-20T10:11:12.459Z,8.66
2018-12-20T10:12:12.528Z,8.67
2018-12-20T10:13:12.588Z,8.67
2018-12-20T10:14:12.643Z,8.73
2018-12-20T10:15:12.705Z,8.70
2018-12-20T10:16:12.763Z,8.73
2018-12-20T10:17:19.891Z,8.76
2018-12-20T10:18:12.892Z,8.76
2018-12-20T10:19:12.948Z,8.85
2018-12-20T10:20:13.012Z,8.76
2018-12-20T10:21:13.072Z,8.87
2018-12-20T10:22:13.148Z,8.88
2018-12-20T10:23:13.192Z,8.87
2018-12-20T10:24:13.258Z,8.94
2018-12-20T10:25:13.316Z,8.92
2018-12-20T10:26:13.378Z,8.88
2018-12-20T10:27:13.444Z,8.94
2018-12-20T10:28:14.256Z,9.02
2018-12-20T10:29:13.560Z,9.02
2018-12-20T10:30:13.620Z,9.03
2018-12-20T10:31:13.684Z,9.06
2018-12-20T10:32:13.752Z,9.08
2018-12-20T10:33:13.820Z,9.08
2018-12-20T10:34:13.868Z,9.18
2018-12-20T10:35:13.929Z,9.11
2018-12-20T10:36:13.989Z,9.14
2018-12-20T10:37:14.056Z,9.11
2018-12-20T10:38:14.123Z,9.16
2018-12-20T10:39:14.173Z,9.21
2018-12-20T10:40:14.237Z,9.16
2018-12-20T10:41:14.298Z,9.13
2018-12-20T10:42:14.365Z,9.16
2018-12-20T10:43:14.430Z,9.16
2018-12-20T10:44:14.485Z,9.14
2018-12-20T10:45:14.541Z,9.08
2018-12-20T10:46:14.605Z,9.10
2018-12-20T13:48:31.770Z,10.10
2018-12-20T13:49:31.630Z,10.07
2018-12-20T13:50:31.686Z,10.05
2018-12-20T13:51:31.738Z,10.09
2018-12-20T13:52:31.794Z,10.05
2018-12-20T13:53:31.858Z,10.09
2018-12-20T13:54:31.918Z,10.01
2018-12-20T13:55:31.966Z,10.04
2018-12-20T13:56:32.026Z,10.09
2018-12-20T13:57:32.082Z,10.10
2018-12-20T13:58:32.143Z,10.09
2018-12-20T13:59:32.234Z,9.98
2018-12-20T14:00:32.262Z,10.05
2018-12-20T14:01:32.322Z,9.99
2018-12-20T14:02:32.382Z,10.09
2018-12-20T14:03:32.447Z,9.99
2018-12-20T14:04:32.511Z,10.02
2018-12-20T14:05:32.574Z,10.01
2018-12-20T14:06:32.627Z,10.05
2018-12-20T14:07:32.684Z,10.05
2018-12-20T14:08:32.743Z,10.02
2018-12-20T14:09:32.811Z,10.04
2018-12-20T14:10:32.875Z,9.94
2018-12-20T14:11:32.927Z,10.01
2018-12-20T14:12:32.987Z,10.01
2018-12-20T14:13:33.051Z,9.94
2018-12-20T14:14:33.171Z,10.02
2018-12-20T14:15:33.171Z,9.95
2018-12-20T14:16:33.234Z,10.01
2018-12-20T14:17:33.295Z,10.04
2018-12-20T14:18:33.355Z,10.09
2018-12-20T14:19:33.423Z,9.94
2018-12-20T14:20:33.491Z,9.87
2018-12-20T14:21:33.540Z,9.86
2018-12-20T14:22:33.599Z,9.86
2018-12-20T14:23:33.666Z,9.80
2018-12-20T14:24:33.731Z,9.84
2018-12-20T14:25:34.008Z,9.82
2018-12-20T14:26:34.031Z,9.72
2018-12-20T14:27:33.909Z,9.76
2018-12-20T14:28:33.969Z,9.68
2018-12-20T14:29:34.042Z,9.62
2018-12-20T14:30:34.103Z,9.54
2018-12-20T14:31:34.230Z,9.54
2018-12-20T14:32:34.218Z,9.58
2018-12-20T14:33:34.276Z,9.51
2018-12-20T14:34:34.348Z,9.55
2018-12-20T14:35:34.408Z,9.58
2018-12-20T14:36:34.460Z,9.55
2018-12-20T14:37:34.524Z,9.39
2018-12-20T14:38:34.584Z,9.36
2018-12-20T14:39:34.652Z,9.34
2018-12-20T14:40:34.712Z,9.32
2018-12-20T14:41:34.772Z,9.26
2018-12-20T14:42:34.830Z,9.28
2018-12-20T14:43:34.892Z,9.21
2018-12-20T14:44:35.019Z,9.25
2018-12-20T14:45:35.021Z,9.19
2018-12-20T14:46:35.077Z,9.13
2018-12-20T14:47:35.136Z,9.14
2018-12-20T14:48:39.231Z,9.10
2018-12-20T14:49:35.260Z,9.21
2018-12-20T14:50:35.429Z,9.14
2018-12-20T14:51:35.381Z,9.11
2018-12-20T14:52:35.445Z,9.02
2018-12-20T14:53:35.508Z,9.14
2018-12-20T14:54:35.569Z,9.16
2018-12-20T14:55:35.637Z,9.14
2018-12-20T14:56:35.697Z,9.11
2018-12-20T14:57:35.753Z,9.16
2018-12-20T14:58:35.817Z,9.11
2018-12-20T14:59:35.906Z,9.14
2018-12-20T15:00:35.969Z,9.14
2018-12-20T15:01:36.034Z,9.16
2018-12-20T15:02:36.057Z,9.19
2018-12-20T15:03:36.121Z,9.14
2018-12-20T15:04:36.199Z,9.16
2018-12-20T15:05:36.349Z,9.14
2018-12-20T15:06:36.305Z,9.13
2018-12-20T15:07:36.365Z,9.11
2018-12-20T15:08:36.425Z,9.10
2018-12-20T15:09:36.490Z,9.14
2018-12-20T15:10:36.562Z,9.11
2018-12-20T15:11:36.617Z,9.13
2018-12-20T15:12:36.674Z,9.08
2018-12-20T15:13:36.733Z,9.08
2018-12-20T15:14:36.801Z,9.14
2018-12-20T15:15:36.866Z,9.10
2018-12-20T15:16:36.926Z,9.19
2018-12-20T15:17:37.191Z,9.16
2018-12-20T15:18:37.043Z,9.18
2018-12-20T15:19:37.104Z,9.19
2018-12-20T15:20:40.727Z,9.14
2018-12-20T15:21:37.225Z,9.26
2018-12-20T15:22:37.286Z,9.23
2018-12-20T15:23:37.350Z,9.16
2018-12-20T15:24:37.414Z,9.18
2018-12-20T15:25:37.510Z,9.16
2018-12-20T15:26:37.542Z,9.18
2018-12-20T15:27:37.594Z,9.11
2018-12-20T15:28:37.663Z,9.19
2018-12-20T15:29:37.718Z,9.16
2018-12-20T15:30:37.815Z,9.08
2018-12-20T15:31:37.849Z,9.18
2018-12-20T15:32:37.904Z,9.14
2018-12-20T15:33:37.970Z,9.19
2018-12-20T15:34:38.027Z,9.14
2018-12-20T15:35:38.275Z,9.11
2018-12-20T15:36:38.149Z,9.14
2018-12-20T15:37:38.211Z,9.11
2018-12-20T15:38:38.275Z,9.18
2018-12-20T15:39:38.331Z,9.10
2018-12-20T15:40:38.521Z,9.16
2018-12-20T15:41:38.558Z,9.16
2018-12-20T15:42:38.519Z,9.11
2018-12-20T15:43:38.575Z,9.18
2018-12-20T15:44:40.367Z,9.19
2018-12-20T15:45:38.707Z,9.18
2018-12-20T15:46:38.772Z,9.10
2018-12-20T15:47:38.824Z,9.22
2018-12-20T15:48:38.898Z,9.10
2018-12-20T15:49:42.039Z,9.18
2018-12-20T15:50:39.015Z,9.16
2018-12-20T15:51:39.076Z,9.16
2018-12-20T15:52:39.135Z,9.18
2018-12-20T15:53:39.192Z,9.10
2018-12-20T15:54:39.254Z,9.11
2018-12-20T15:55:39.326Z,9.19
2018-12-20T15:56:39.383Z,9.14
2018-12-20T15:57:39.435Z,9.14
2018-12-20T15:58:39.499Z,9.25
2018-12-20T15:59:39.565Z,9.22
2018-12-20T16:00:39.628Z,9.22
2018-12-20T16:01:39.696Z,9.26
2018-12-20T16:02:39.744Z,9.37
2018-12-20T16:03:39.803Z,9.40
2018-12-20T16:04:39.868Z,9.32
2018-12-20T16:05:39.938Z,9.37
2018-12-20T16:06:39.996Z,9.40
2018-12-20T16:07:40.052Z,9.37
2018-12-20T16:08:40.112Z,9.29
2018-12-20T16:09:40.179Z,9.37
2018-12-20T16:10:40.332Z,9.32
2018-12-20T16:11:40.296Z,9.34
2018-12-20T16:12:40.360Z,9.32
2018-12-20T16:13:40.420Z,9.37
2018-12-20T16:14:40.476Z,9.39
2018-12-20T16:15:40.553Z,9.39
2018-12-20T16:16:40.613Z,9.48
2018-12-20T16:17:40.664Z,9.40
2018-12-20T16:18:40.729Z,9.43
2018-12-20T16:19:40.793Z,9.47